sensor_id;sensor_type;location;lat;lon;timestamp;P1;durP1;ratioP1;P2;durP2;ratioP2
69188;SDS011;56302;52.322;5.926;2022-10-30T00:00:28;17.10;;;6.03;;
69188;SDS011;56302;52.322;5.926;2022-10-30T00:02:53;17.38;;;6.07;;
69188;SDS011;56302;52.322;5.926;2022-10-30T00:05:19;16.23;;;5.63;;
69188;SDS011;56302;52.322;5.926;2022-10-30T00:07:45;18.58;;;5.93;;
69188;SDS011;56302;52.322;5.926;2022-10-30T00:10:12;18.63;;;6.00;;
69188;SDS011;56302;52.322;5.926;2022-10-30T00:12:38;19.65;;;6.00;;
69188;SDS011;56302;52.322;5.926;2022-10-30T00:15:04;22.58;;;6.03;;
69188;SDS011;56302;52.322;5.926;2022-10-30T00:17:30;19.27;;;5.30;;
69188;SDS011;56302;52.322;5.926;2022-10-30T00:19:55;18.45;;;5.95;;
69188;SDS011;56302;52.322;5.926;2022-10-30T00:22:21;20.70;;;5.97;;
69188;SDS011;56302;52.322;5.926;2022-10-30T00:24:46;24.17;;;6.25;;
69188;SDS011;56302;52.322;5.926;2022-10-30T00:27:12;29.23;;;6.38;;
69188;SDS011;56302;52.322;5.926;2022-10-30T00:29:38;21.73;;;6.53;;
69188;SDS011;56302;52.322;5.926;2022-10-30T00:32:03;23.42;;;5.90;;
69188;SDS011;56302;52.322;5.926;2022-10-30T00:34:29;26.63;;;5.30;;
69188;SDS011;56302;52.322;5.926;2022-10-30T00:36:54;23.33;;;5.77;;
69188;SDS011;56302;52.322;5.926;2022-10-30T00:39:20;12.55;;;5.38;;
69188;SDS011;56302;52.322;5.926;2022-10-30T00:41:45;20.10;;;5.70;;
69188;SDS011;56302;52.322;5.926;2022-10-30T00:47:24;23.40;;;6.18;;
69188;SDS011;56302;52.322;5.926;2022-10-30T00:49:57;15.00;;;6.82;;
69188;SDS011;56302;52.322;5.926;2022-10-30T00:52:27;26.48;;;7.28;;
69188;SDS011;56302;52.322;5.926;2022-10-30T00:54:56;26.33;;;6.37;;
69188;SDS011;56302;52.322;5.926;2022-10-30T00:57:27;22.45;;;6.68;;
69188;SDS011;56302;52.322;5.926;2022-10-30T00:59:53;20.10;;;6.68;;
69188;SDS011;56302;52.322;5.926;2022-10-30T01:02:19;18.80;;;6.50;;
69188;SDS011;56302;52.322;5.926;2022-10-30T01:04:45;17.63;;;6.18;;
69188;SDS011;56302;52.322;5.926;2022-10-30T01:07:13;15.85;;;6.45;;
69188;SDS011;56302;52.322;5.926;2022-10-30T01:09:40;20.83;;;6.38;;
69188;SDS011;56302;52.322;5.926;2022-10-30T01:12:06;22.17;;;6.47;;
69188;SDS011;56302;52.322;5.926;2022-10-30T01:14:33;19.03;;;6.50;;
69188;SDS011;56302;52.322;5.926;2022-10-30T01:22:51;15.95;;;6.20;;
69188;SDS011;56302;52.322;5.926;2022-10-30T01:28:30;16.50;;;6.00;;
69188;SDS011;56302;52.322;5.926;2022-10-30T01:34:18;21.10;;;6.53;;
69188;SDS011;56302;52.322;5.926;2022-10-30T01:36:48;18.33;;;6.20;;
69188;SDS011;56302;52.322;5.926;2022-10-30T01:39:21;21.15;;;5.43;;
69188;SDS011;56302;52.322;5.926;2022-10-30T01:41:50;25.27;;;5.95;;
69188;SDS011;56302;52.322;5.926;2022-10-30T01:44:17;23.30;;;5.93;;
69188;SDS011;56302;52.322;5.926;2022-10-30T01:49:44;34.17;;;6.00;;
69188;SDS011;56302;52.322;5.926;2022-10-30T01:57:39;15.60;;;5.47;;
69188;SDS011;56302;52.322;5.926;2022-10-30T02:00:14;25.85;;;5.97;;
69188;SDS011;56302;52.322;5.926;2022-10-30T02:02:41;21.07;;;5.53;;
69188;SDS011;56302;52.322;5.926;2022-10-30T02:05:07;20.05;;;5.80;;
69188;SDS011;56302;52.322;5.926;2022-10-30T02:07:35;22.13;;;6.32;;
69188;SDS011;56302;52.322;5.926;2022-10-30T02:10:01;23.45;;;5.07;;
69188;SDS011;56302;52.322;5.926;2022-10-30T02:12:29;15.00;;;4.80;;
69188;SDS011;56302;52.322;5.926;2022-10-30T02:14:56;21.67;;;6.03;;
69188;SDS011;56302;52.322;5.926;2022-10-30T02:17:24;20.95;;;6.75;;
69188;SDS011;56302;52.322;5.926;2022-10-30T02:19:51;24.77;;;5.82;;
69188;SDS011;56302;52.322;5.926;2022-10-30T02:22:16;20.87;;;5.53;;
69188;SDS011;56302;52.322;5.926;2022-10-30T02:24:42;17.15;;;6.72;;
69188;SDS011;56302;52.322;5.926;2022-10-30T02:27:08;30.88;;;6.10;;
69188;SDS011;56302;52.322;5.926;2022-10-30T02:29:34;17.35;;;6.07;;
69188;SDS011;56302;52.322;5.926;2022-10-30T02:32:00;23.77;;;6.03;;
69188;SDS011;56302;52.322;5.926;2022-10-30T02:34:26;19.42;;;6.75;;
69188;SDS011;56302;52.322;5.926;2022-10-30T02:36:51;26.13;;;6.07;;
69188;SDS011;56302;52.322;5.926;2022-10-30T02:39:17;19.27;;;6.00;;
69188;SDS011;56302;52.322;5.926;2022-10-30T02:41:44;14.87;;;5.20;;
69188;SDS011;56302;52.322;5.926;2022-10-30T02:44:09;18.02;;;6.07;;
69188;SDS011;56302;52.322;5.926;2022-10-30T02:46:35;13.63;;;5.50;;
69188;SDS011;56302;52.322;5.926;2022-10-30T02:49:00;15.50;;;5.60;;
69188;SDS011;56302;52.322;5.926;2022-10-30T02:51:26;16.92;;;5.63;;
69188;SDS011;56302;52.322;5.926;2022-10-30T02:53:52;21.10;;;6.05;;
69188;SDS011;56302;52.322;5.926;2022-10-30T02:56:17;15.70;;;5.43;;
69188;SDS011;56302;52.322;5.926;2022-10-30T02:58:43;14.10;;;5.97;;
69188;SDS011;56302;52.322;5.926;2022-10-30T03:01:10;20.92;;;6.32;;
69188;SDS011;56302;52.322;5.926;2022-10-30T03:03:38;20.27;;;5.77;;
69188;SDS011;56302;52.322;5.926;2022-10-30T03:06:04;14.23;;;4.80;;
69188;SDS011;56302;52.322;5.926;2022-10-30T03:08:31;13.50;;;5.60;;
69188;SDS011;56302;52.322;5.926;2022-10-30T03:10:58;11.57;;;5.30;;
69188;SDS011;56302;52.322;5.926;2022-10-30T03:13:34;13.68;;;5.78;;
69188;SDS011;56302;52.322;5.926;2022-10-30T03:16:01;16.15;;;6.05;;
69188;SDS011;56302;52.322;5.926;2022-10-30T03:18:35;16.00;;;5.07;;
69188;SDS011;56302;52.322;5.926;2022-10-30T03:21:01;28.00;;;6.43;;
69188;SDS011;56302;52.322;5.926;2022-10-30T03:23:27;17.30;;;5.07;;
69188;SDS011;56302;52.322;5.926;2022-10-30T03:25:53;13.65;;;5.25;;
69188;SDS011;56302;52.322;5.926;2022-10-30T03:28:21;14.52;;;4.60;;
69188;SDS011;56302;52.322;5.926;2022-10-30T03:30:47;11.43;;;4.70;;
69188;SDS011;56302;52.322;5.926;2022-10-30T03:33:14;17.83;;;5.72;;
69188;SDS011;56302;52.322;5.926;2022-10-30T03:35:43;14.37;;;5.17;;
69188;SDS011;56302;52.322;5.926;2022-10-30T03:38:09;11.35;;;4.93;;
69188;SDS011;56302;52.322;5.926;2022-10-30T03:40:38;14.60;;;5.40;;
69188;SDS011;56302;52.322;5.926;2022-10-30T03:43:04;17.42;;;5.43;;
69188;SDS011;56302;52.322;5.926;2022-10-30T03:45:33;11.27;;;5.20;;
69188;SDS011;56302;52.322;5.926;2022-10-30T03:48:03;21.80;;;5.20;;
69188;SDS011;56302;52.322;5.926;2022-10-30T03:50:30;14.82;;;5.40;;
69188;SDS011;56302;52.322;5.926;2022-10-30T03:52:56;15.82;;;5.82;;
69188;SDS011;56302;52.322;5.926;2022-10-30T03:55:22;11.87;;;4.80;;
69188;SDS011;56302;52.322;5.926;2022-10-30T03:57:48;14.00;;;4.90;;
69188;SDS011;56302;52.322;5.926;2022-10-30T04:00:14;22.63;;;5.32;;
69188;SDS011;56302;52.322;5.926;2022-10-30T04:02:47;19.77;;;4.43;;
69188;SDS011;56302;52.322;5.926;2022-10-30T04:05:15;17.00;;;4.90;;
69188;SDS011;56302;52.322;5.926;2022-10-30T04:07:42;19.00;;;4.80;;
69188;SDS011;56302;52.322;5.926;2022-10-30T04:10:08;22.15;;;4.65;;
69188;SDS011;56302;52.322;5.926;2022-10-30T04:12:34;11.18;;;3.50;;
69188;SDS011;56302;52.322;5.926;2022-10-30T04:15:00;10.43;;;3.83;;
69188;SDS011;56302;52.322;5.926;2022-10-30T04:17:25;10.13;;;4.43;;
69188;SDS011;56302;52.322;5.926;2022-10-30T04:19:51;12.77;;;6.07;;
69188;SDS011;56302;52.322;5.926;2022-10-30T04:22:17;9.70;;;4.80;;
69188;SDS011;56302;52.322;5.926;2022-10-30T04:24:42;12.30;;;4.78;;
69188;SDS011;56302;52.322;5.926;2022-10-30T04:27:08;12.23;;;4.70;;
69188;SDS011;56302;52.322;5.926;2022-10-30T04:29:34;13.43;;;5.35;;
69188;SDS011;56302;52.322;5.926;2022-10-30T04:32:01;9.50;;;4.97;;
69188;SDS011;56302;52.322;5.926;2022-10-30T04:34:27;10.63;;;4.27;;
69188;SDS011;56302;52.322;5.926;2022-10-30T04:36:53;15.00;;;4.85;;
69188;SDS011;56302;52.322;5.926;2022-10-30T04:39:19;12.73;;;4.65;;
69188;SDS011;56302;52.322;5.926;2022-10-30T04:41:45;7.72;;;3.55;;
69188;SDS011;56302;52.322;5.926;2022-10-30T04:44:10;7.73;;;3.73;;
69188;SDS011;56302;52.322;5.926;2022-10-30T04:46:36;8.43;;;3.37;;
69188;SDS011;56302;52.322;5.926;2022-10-30T04:49:01;10.48;;;4.07;;
69188;SDS011;56302;52.322;5.926;2022-10-30T04:51:27;13.50;;;4.20;;
69188;SDS011;56302;52.322;5.926;2022-10-30T04:53:52;15.87;;;4.83;;
69188;SDS011;56302;52.322;5.926;2022-10-30T04:56:19;10.93;;;4.63;;
69188;SDS011;56302;52.322;5.926;2022-10-30T04:58:44;22.55;;;4.60;;
69188;SDS011;56302;52.322;5.926;2022-10-30T05:01:10;29.10;;;5.07;;
69188;SDS011;56302;52.322;5.926;2022-10-30T05:03:35;25.90;;;4.73;;
69188;SDS011;56302;52.322;5.926;2022-10-30T05:06:02;23.17;;;4.55;;
69188;SDS011;56302;52.322;5.926;2022-10-30T05:08:30;14.30;;;3.47;;
69188;SDS011;56302;52.322;5.926;2022-10-30T05:10:56;22.83;;;3.97;;
69188;SDS011;56302;52.322;5.926;2022-10-30T05:13:21;8.95;;;3.33;;
69188;SDS011;56302;52.322;5.926;2022-10-30T05:15:47;15.43;;;3.03;;
69188;SDS011;56302;52.322;5.926;2022-10-30T05:18:13;13.18;;;3.25;;
69188;SDS011;56302;52.322;5.926;2022-10-30T05:20:38;13.23;;;3.33;;
69188;SDS011;56302;52.322;5.926;2022-10-30T05:23:04;15.73;;;3.63;;
69188;SDS011;56302;52.322;5.926;2022-10-30T05:25:30;10.98;;;3.45;;
69188;SDS011;56302;52.322;5.926;2022-10-30T05:27:56;10.43;;;3.60;;
69188;SDS011;56302;52.322;5.926;2022-10-30T05:30:23;6.63;;;3.08;;
69188;SDS011;56302;52.322;5.926;2022-10-30T05:32:49;8.90;;;3.28;;
69188;SDS011;56302;52.322;5.926;2022-10-30T05:35:14;15.07;;;3.67;;
69188;SDS011;56302;52.322;5.926;2022-10-30T05:37:40;16.52;;;4.03;;
69188;SDS011;56302;52.322;5.926;2022-10-30T05:40:05;9.40;;;3.03;;
69188;SDS011;56302;52.322;5.926;2022-10-30T05:42:31;13.63;;;3.55;;
69188;SDS011;56302;52.322;5.926;2022-10-30T05:44:57;11.37;;;3.73;;
69188;SDS011;56302;52.322;5.926;2022-10-30T05:47:22;34.47;;;4.97;;
69188;SDS011;56302;52.322;5.926;2022-10-30T05:49:48;18.40;;;5.57;;
69188;SDS011;56302;52.322;5.926;2022-10-30T05:52:13;14.82;;;4.60;;
69188;SDS011;56302;52.322;5.926;2022-10-30T05:54:39;15.17;;;4.27;;
69188;SDS011;56302;52.322;5.926;2022-10-30T05:57:04;12.07;;;4.40;;
69188;SDS011;56302;52.322;5.926;2022-10-30T05:59:30;20.88;;;4.88;;
69188;SDS011;56302;52.322;5.926;2022-10-30T06:01:55;18.83;;;5.17;;
69188;SDS011;56302;52.322;5.926;2022-10-30T06:04:22;16.10;;;3.50;;
69188;SDS011;56302;52.322;5.926;2022-10-30T06:06:47;13.87;;;4.67;;
69188;SDS011;56302;52.322;5.926;2022-10-30T06:09:13;8.73;;;3.60;;
69188;SDS011;56302;52.322;5.926;2022-10-30T06:11:38;8.02;;;3.45;;
69188;SDS011;56302;52.322;5.926;2022-10-30T06:14:04;7.40;;;3.53;;
69188;SDS011;56302;52.322;5.926;2022-10-30T06:16:29;18.67;;;3.80;;
69188;SDS011;56302;52.322;5.926;2022-10-30T06:18:55;9.85;;;4.18;;
69188;SDS011;56302;52.322;5.926;2022-10-30T06:21:20;17.23;;;4.77;;
69188;SDS011;56302;52.322;5.926;2022-10-30T06:23:46;36.80;;;4.10;;
69188;SDS011;56302;52.322;5.926;2022-10-30T06:26:12;31.85;;;3.83;;
69188;SDS011;56302;52.322;5.926;2022-10-30T06:28:38;39.03;;;3.60;;
69188;SDS011;56302;52.322;5.926;2022-10-30T06:31:03;11.63;;;3.22;;
69188;SDS011;56302;52.322;5.926;2022-10-30T06:33:29;6.72;;;3.10;;
69188;SDS011;56302;52.322;5.926;2022-10-30T06:35:55;5.82;;;3.40;;
69188;SDS011;56302;52.322;5.926;2022-10-30T06:38:21;8.47;;;3.73;;
69188;SDS011;56302;52.322;5.926;2022-10-30T06:40:47;5.95;;;3.40;;
69188;SDS011;56302;52.322;5.926;2022-10-30T06:43:12;7.80;;;3.25;;
69188;SDS011;56302;52.322;5.926;2022-10-30T06:45:38;10.45;;;4.28;;
69188;SDS011;56302;52.322;5.926;2022-10-30T06:48:03;9.77;;;4.70;;
69188;SDS011;56302;52.322;5.926;2022-10-30T06:53:32;15.35;;;5.03;;
69188;SDS011;56302;52.322;5.926;2022-10-30T06:55:58;10.23;;;5.10;;
69188;SDS011;56302;52.322;5.926;2022-10-30T06:58:25;11.90;;;5.10;;
69188;SDS011;56302;52.322;5.926;2022-10-30T07:00:51;11.57;;;5.43;;
69188;SDS011;56302;52.322;5.926;2022-10-30T07:03:17;12.32;;;5.32;;
69188;SDS011;56302;52.322;5.926;2022-10-30T07:05:43;15.80;;;5.10;;
69188;SDS011;56302;52.322;5.926;2022-10-30T07:08:09;12.40;;;4.67;;
69188;SDS011;56302;52.322;5.926;2022-10-30T07:10:35;13.80;;;4.40;;
69188;SDS011;56302;52.322;5.926;2022-10-30T07:13:00;16.50;;;5.07;;
69188;SDS011;56302;52.322;5.926;2022-10-30T07:15:26;21.48;;;5.28;;
69188;SDS011;56302;52.322;5.926;2022-10-30T07:17:56;16.15;;;5.40;;
69188;SDS011;56302;52.322;5.926;2022-10-30T07:20:26;13.93;;;5.47;;
69188;SDS011;56302;52.322;5.926;2022-10-30T07:22:52;11.68;;;4.95;;
69188;SDS011;56302;52.322;5.926;2022-10-30T07:25:19;12.02;;;5.45;;
69188;SDS011;56302;52.322;5.926;2022-10-30T07:27:49;14.43;;;5.80;;
69188;SDS011;56302;52.322;5.926;2022-10-30T07:30:16;11.95;;;5.38;;
69188;SDS011;56302;52.322;5.926;2022-10-30T07:32:43;28.10;;;6.40;;
69188;SDS011;56302;52.322;5.926;2022-10-30T07:35:10;18.23;;;5.43;;
69188;SDS011;56302;52.322;5.926;2022-10-30T07:37:37;13.05;;;5.55;;
69188;SDS011;56302;52.322;5.926;2022-10-30T07:40:03;20.88;;;5.22;;
69188;SDS011;56302;52.322;5.926;2022-10-30T07:42:31;32.88;;;5.95;;
69188;SDS011;56302;52.322;5.926;2022-10-30T07:44:57;23.83;;;6.13;;
69188;SDS011;56302;52.322;5.926;2022-10-30T07:47:22;12.48;;;5.40;;
69188;SDS011;56302;52.322;5.926;2022-10-30T07:49:48;36.03;;;6.07;;
69188;SDS011;56302;52.322;5.926;2022-10-30T07:52:13;25.40;;;7.40;;
69188;SDS011;56302;52.322;5.926;2022-10-30T07:54:39;17.48;;;5.53;;
69188;SDS011;56302;52.322;5.926;2022-10-30T07:57:04;24.97;;;5.10;;
69188;SDS011;56302;52.322;5.926;2022-10-30T07:59:30;18.07;;;5.80;;
69188;SDS011;56302;52.322;5.926;2022-10-30T08:01:55;12.98;;;6.18;;
69188;SDS011;56302;52.322;5.926;2022-10-30T08:04:21;18.67;;;6.80;;
69188;SDS011;56302;52.322;5.926;2022-10-30T08:06:46;12.27;;;5.50;;
69188;SDS011;56302;52.322;5.926;2022-10-30T08:09:12;12.95;;;5.90;;
69188;SDS011;56302;52.322;5.926;2022-10-30T08:11:38;14.07;;;5.93;;
69188;SDS011;56302;52.322;5.926;2022-10-30T08:14:03;20.97;;;6.40;;
69188;SDS011;56302;52.322;5.926;2022-10-30T08:16:29;21.10;;;7.03;;
69188;SDS011;56302;52.322;5.926;2022-10-30T08:18:54;17.50;;;6.10;;
69188;SDS011;56302;52.322;5.926;2022-10-30T08:21:20;18.87;;;7.60;;
69188;SDS011;56302;52.322;5.926;2022-10-30T08:23:46;17.05;;;7.53;;
69188;SDS011;56302;52.322;5.926;2022-10-30T08:26:11;20.97;;;9.07;;
69188;SDS011;56302;52.322;5.926;2022-10-30T08:28:37;19.60;;;8.82;;
69188;SDS011;56302;52.322;5.926;2022-10-30T08:31:03;22.63;;;8.80;;
69188;SDS011;56302;52.322;5.926;2022-10-30T08:33:29;22.05;;;9.43;;
69188;SDS011;56302;52.322;5.926;2022-10-30T08:35:56;18.60;;;9.73;;
69188;SDS011;56302;52.322;5.926;2022-10-30T08:38:23;23.25;;;10.45;;
69188;SDS011;56302;52.322;5.926;2022-10-30T08:40:49;22.17;;;10.70;;
69188;SDS011;56302;52.322;5.926;2022-10-30T08:43:15;19.00;;;9.30;;
69188;SDS011;56302;52.322;5.926;2022-10-30T08:45:41;18.52;;;9.65;;
69188;SDS011;56302;52.322;5.926;2022-10-30T08:48:08;17.23;;;9.60;;
69188;SDS011;56302;52.322;5.926;2022-10-30T08:50:36;23.98;;;10.98;;
69188;SDS011;56302;52.322;5.926;2022-10-30T08:53:05;26.97;;;10.60;;
69188;SDS011;56302;52.322;5.926;2022-10-30T08:55:32;20.40;;;10.75;;
69188;SDS011;56302;52.322;5.926;2022-10-30T08:57:59;24.52;;;9.98;;
69188;SDS011;56302;52.322;5.926;2022-10-30T09:00:25;20.25;;;9.82;;
69188;SDS011;56302;52.322;5.926;2022-10-30T09:02:51;22.67;;;10.77;;
69188;SDS011;56302;52.322;5.926;2022-10-30T09:05:17;18.17;;;9.63;;
69188;SDS011;56302;52.322;5.926;2022-10-30T09:07:43;20.20;;;10.30;;
69188;SDS011;56302;52.322;5.926;2022-10-30T09:10:08;21.73;;;9.70;;
69188;SDS011;56302;52.322;5.926;2022-10-30T09:12:34;25.52;;;10.52;;
69188;SDS011;56302;52.322;5.926;2022-10-30T09:15:00;22.53;;;10.17;;
69188;SDS011;56302;52.322;5.926;2022-10-30T09:17:25;18.52;;;10.15;;
69188;SDS011;56302;52.322;5.926;2022-10-30T09:19:51;19.10;;;10.80;;
69188;SDS011;56302;52.322;5.926;2022-10-30T09:22:17;24.40;;;11.25;;
69188;SDS011;56302;52.322;5.926;2022-10-30T09:24:42;22.57;;;9.57;;
69188;SDS011;56302;52.322;5.926;2022-10-30T09:27:08;23.40;;;9.23;;
69188;SDS011;56302;52.322;5.926;2022-10-30T09:29:33;22.30;;;10.75;;
69188;SDS011;56302;52.322;5.926;2022-10-30T09:31:59;19.33;;;9.65;;
69188;SDS011;56302;52.322;5.926;2022-10-30T09:34:25;22.87;;;9.67;;
69188;SDS011;56302;52.322;5.926;2022-10-30T09:36:51;23.00;;;10.68;;
69188;SDS011;56302;52.322;5.926;2022-10-30T09:39:17;21.47;;;10.73;;
69188;SDS011;56302;52.322;5.926;2022-10-30T09:50:06;21.48;;;9.23;;
69188;SDS011;56302;52.322;5.926;2022-10-30T09:58:02;24.85;;;9.35;;
69188;SDS011;56302;52.322;5.926;2022-10-30T10:06:11;19.77;;;9.75;;
69188;SDS011;56302;52.322;5.926;2022-10-30T10:08:43;19.88;;;9.15;;
69188;SDS011;56302;52.322;5.926;2022-10-30T10:11:34;23.17;;;9.90;;
69188;SDS011;56302;52.322;5.926;2022-10-30T10:14:14;23.38;;;10.05;;
69188;SDS011;56302;52.322;5.926;2022-10-30T10:16:47;15.15;;;9.63;;
69188;SDS011;56302;52.322;5.926;2022-10-30T10:22:22;26.27;;;10.55;;
69188;SDS011;56302;52.322;5.926;2022-10-30T10:24:51;22.05;;;9.88;;
69188;SDS011;56302;52.322;5.926;2022-10-30T10:39:03;16.23;;;7.40;;
69188;SDS011;56302;52.322;5.926;2022-10-30T10:41:56;14.50;;;7.50;;
69188;SDS011;56302;52.322;5.926;2022-10-30T10:52:34;20.90;;;8.57;;
69188;SDS011;56302;52.322;5.926;2022-10-30T10:55:14;16.57;;;8.33;;
69188;SDS011;56302;52.322;5.926;2022-10-30T10:57:42;16.65;;;8.45;;
69188;SDS011;56302;52.322;5.926;2022-10-30T11:02:48;20.75;;;8.00;;
69188;SDS011;56302;52.322;5.926;2022-10-30T11:07:57;17.67;;;9.43;;
69188;SDS011;56302;52.322;5.926;2022-10-30T11:10:27;23.48;;;9.52;;
69188;SDS011;56302;52.322;5.926;2022-10-30T11:12:53;21.17;;;10.33;;
69188;SDS011;56302;52.322;5.926;2022-10-30T11:18:07;22.33;;;10.55;;
69188;SDS011;56302;52.322;5.926;2022-10-30T11:23:34;18.67;;;10.25;;
69188;SDS011;56302;52.322;5.926;2022-10-30T11:31:34;18.45;;;11.00;;
69188;SDS011;56302;52.322;5.926;2022-10-30T11:36:43;18.75;;;10.68;;
69188;SDS011;56302;52.322;5.926;2022-10-30T11:39:10;21.27;;;10.20;;
69188;SDS011;56302;52.322;5.926;2022-10-30T11:41:42;22.63;;;10.07;;
69188;SDS011;56302;52.322;5.926;2022-10-30T11:44:12;26.25;;;10.60;;
69188;SDS011;56302;52.322;5.926;2022-10-30T11:46:38;24.13;;;11.40;;
69188;SDS011;56302;52.322;5.926;2022-10-30T11:49:05;19.05;;;9.98;;
69188;SDS011;56302;52.322;5.926;2022-10-30T11:51:32;22.50;;;10.60;;
69188;SDS011;56302;52.322;5.926;2022-10-30T11:54:01;21.52;;;10.23;;
69188;SDS011;56302;52.322;5.926;2022-10-30T11:56:27;20.27;;;10.50;;
69188;SDS011;56302;52.322;5.926;2022-10-30T11:58:56;22.03;;;10.23;;
69188;SDS011;56302;52.322;5.926;2022-10-30T12:01:25;21.67;;;10.98;;
69188;SDS011;56302;52.322;5.926;2022-10-30T12:03:53;25.38;;;10.80;;
69188;SDS011;56302;52.322;5.926;2022-10-30T12:08:59;26.60;;;11.80;;
69188;SDS011;56302;52.322;5.926;2022-10-30T12:11:34;21.67;;;11.00;;
69188;SDS011;56302;52.322;5.926;2022-10-30T12:14:01;24.38;;;11.32;;
69188;SDS011;56302;52.322;5.926;2022-10-30T12:16:27;27.98;;;11.15;;
69188;SDS011;56302;52.322;5.926;2022-10-30T12:18:55;22.02;;;10.88;;
69188;SDS011;56302;52.322;5.926;2022-10-30T12:21:27;23.20;;;10.35;;
69188;SDS011;56302;52.322;5.926;2022-10-30T12:23:56;24.20;;;10.77;;
69188;SDS011;56302;52.322;5.926;2022-10-30T12:26:27;21.45;;;10.15;;
69188;SDS011;56302;52.322;5.926;2022-10-30T12:28:56;23.15;;;10.68;;
69188;SDS011;56302;52.322;5.926;2022-10-30T12:31:40;20.00;;;10.15;;
69188;SDS011;56302;52.322;5.926;2022-10-30T12:36:52;19.60;;;10.40;;
69188;SDS011;56302;52.322;5.926;2022-10-30T12:42:07;20.40;;;11.27;;
69188;SDS011;56302;52.322;5.926;2022-10-30T12:44:45;22.25;;;10.32;;
69188;SDS011;56302;52.322;5.926;2022-10-30T12:47:28;18.63;;;10.98;;
69188;SDS011;56302;52.322;5.926;2022-10-30T12:50:02;22.77;;;10.63;;
69188;SDS011;56302;52.322;5.926;2022-10-30T12:52:40;22.15;;;10.48;;
69188;SDS011;56302;52.322;5.926;2022-10-30T12:55:18;29.27;;;10.65;;
69188;SDS011;56302;52.322;5.926;2022-10-30T13:00:43;24.00;;;10.60;;
69188;SDS011;56302;52.322;5.926;2022-10-30T13:03:21;22.60;;;10.57;;
69188;SDS011;56302;52.322;5.926;2022-10-30T13:05:56;22.52;;;10.70;;
69188;SDS011;56302;52.322;5.926;2022-10-30T13:08:35;23.05;;;10.65;;
69188;SDS011;56302;52.322;5.926;2022-10-30T13:11:08;20.00;;;10.35;;
69188;SDS011;56302;52.322;5.926;2022-10-30T13:13:36;21.75;;;10.77;;
69188;SDS011;56302;52.322;5.926;2022-10-30T13:16:09;22.20;;;9.73;;
69188;SDS011;56302;52.322;5.926;2022-10-30T13:18:58;20.33;;;10.43;;
69188;SDS011;56302;52.322;5.926;2022-10-30T13:21:26;23.55;;;11.20;;
69188;SDS011;56302;52.322;5.926;2022-10-30T13:23:59;24.63;;;10.20;;
69188;SDS011;56302;52.322;5.926;2022-10-30T13:29:10;25.20;;;10.30;;
69188;SDS011;56302;52.322;5.926;2022-10-30T13:31:54;25.60;;;9.80;;
69188;SDS011;56302;52.322;5.926;2022-10-30T13:40:18;19.67;;;10.20;;
69188;SDS011;56302;52.322;5.926;2022-10-30T13:42:55;20.87;;;8.97;;
69188;SDS011;56302;52.322;5.926;2022-10-30T13:54:07;26.23;;;10.00;;
69188;SDS011;56302;52.322;5.926;2022-10-30T13:56:40;22.77;;;9.87;;
69188;SDS011;56302;52.322;5.926;2022-10-30T14:02:24;24.88;;;9.93;;
69188;SDS011;56302;52.322;5.926;2022-10-30T14:07:46;22.60;;;9.27;;
69188;SDS011;56302;52.322;5.926;2022-10-30T14:10:51;19.10;;;9.27;;
69188;SDS011;56302;52.322;5.926;2022-10-30T14:15:53;25.85;;;10.10;;
69188;SDS011;56302;52.322;5.926;2022-10-30T14:18:29;22.08;;;8.60;;
69188;SDS011;56302;52.322;5.926;2022-10-30T14:21:27;26.77;;;9.70;;
69188;SDS011;56302;52.322;5.926;2022-10-30T14:26:38;21.23;;;8.85;;
69188;SDS011;56302;52.322;5.926;2022-10-30T14:29:28;21.90;;;8.85;;
69188;SDS011;56302;52.322;5.926;2022-10-30T14:31:57;28.50;;;9.48;;
69188;SDS011;56302;52.322;5.926;2022-10-30T14:37:07;21.77;;;8.47;;
69188;SDS011;56302;52.322;5.926;2022-10-30T14:39:40;19.60;;;8.57;;
69188;SDS011;56302;52.322;5.926;2022-10-30T14:44:56;23.20;;;8.68;;
69188;SDS011;56302;52.322;5.926;2022-10-30T14:55:57;19.83;;;8.65;;
69188;SDS011;56302;52.322;5.926;2022-10-30T14:58:44;21.92;;;8.27;;
69188;SDS011;56302;52.322;5.926;2022-10-30T15:07:48;26.08;;;8.68;;
69188;SDS011;56302;52.322;5.926;2022-10-30T15:15:30;25.25;;;7.82;;
69188;SDS011;56302;52.322;5.926;2022-10-30T15:18:18;23.87;;;8.07;;
69188;SDS011;56302;52.322;5.926;2022-10-30T15:20:43;16.27;;;7.80;;
69188;SDS011;56302;52.322;5.926;2022-10-30T15:23:18;19.60;;;8.02;;
69188;SDS011;56302;52.322;5.926;2022-10-30T15:25:52;20.13;;;7.38;;
69188;SDS011;56302;52.322;5.926;2022-10-30T15:28:19;19.60;;;7.73;;
69188;SDS011;56302;52.322;5.926;2022-10-30T15:33:31;18.73;;;6.88;;
69188;SDS011;56302;52.322;5.926;2022-10-30T15:36:01;21.90;;;7.60;;
69188;SDS011;56302;52.322;5.926;2022-10-30T15:38:28;18.45;;;7.22;;
69188;SDS011;56302;52.322;5.926;2022-10-30T15:40:57;19.20;;;6.33;;
69188;SDS011;56302;52.322;5.926;2022-10-30T15:43:33;19.80;;;6.88;;
69188;SDS011;56302;52.322;5.926;2022-10-30T15:46:01;24.45;;;6.78;;
69188;SDS011;56302;52.322;5.926;2022-10-30T15:48:32;55.57;;;7.30;;
69188;SDS011;56302;52.322;5.926;2022-10-30T15:51:00;43.90;;;6.82;;
69188;SDS011;56302;52.322;5.926;2022-10-30T15:56:02;31.23;;;6.75;;
69188;SDS011;56302;52.322;5.926;2022-10-30T15:58:29;29.02;;;6.85;;
69188;SDS011;56302;52.322;5.926;2022-10-30T16:00:58;25.50;;;6.13;;
69188;SDS011;56302;52.322;5.926;2022-10-30T16:03:25;19.52;;;7.07;;
69188;SDS011;56302;52.322;5.926;2022-10-30T16:08:44;27.63;;;6.57;;
69188;SDS011;56302;52.322;5.926;2022-10-30T16:11:11;17.98;;;6.03;;
69188;SDS011;56302;52.322;5.926;2022-10-30T16:13:38;26.13;;;6.35;;
69188;SDS011;56302;52.322;5.926;2022-10-30T16:16:05;58.75;;;7.75;;
69188;SDS011;56302;52.322;5.926;2022-10-30T16:18:35;34.50;;;7.22;;
69188;SDS011;56302;52.322;5.926;2022-10-30T16:21:03;33.00;;;6.72;;
69188;SDS011;56302;52.322;5.926;2022-10-30T16:23:37;30.77;;;6.40;;
69188;SDS011;56302;52.322;5.926;2022-10-30T16:26:05;23.48;;;6.53;;
69188;SDS011;56302;52.322;5.926;2022-10-30T16:28:35;22.08;;;6.18;;
69188;SDS011;56302;52.322;5.926;2022-10-30T16:31:05;16.50;;;6.43;;
69188;SDS011;56302;52.322;5.926;2022-10-30T16:33:38;20.67;;;5.90;;
69188;SDS011;56302;52.322;5.926;2022-10-30T16:36:05;23.42;;;7.10;;
69188;SDS011;56302;52.322;5.926;2022-10-30T16:38:33;25.02;;;6.00;;
69188;SDS011;56302;52.322;5.926;2022-10-30T16:41:04;28.40;;;6.63;;
69188;SDS011;56302;52.322;5.926;2022-10-30T16:43:31;26.80;;;5.63;;
69188;SDS011;56302;52.322;5.926;2022-10-30T16:48:38;21.42;;;7.10;;
69188;SDS011;56302;52.322;5.926;2022-10-30T16:51:11;19.20;;;5.88;;
69188;SDS011;56302;52.322;5.926;2022-10-30T16:53:39;14.73;;;6.20;;
69188;SDS011;56302;52.322;5.926;2022-10-30T16:56:19;21.97;;;5.97;;
69188;SDS011;56302;52.322;5.926;2022-10-30T16:58:57;28.67;;;5.90;;
69188;SDS011;56302;52.322;5.926;2022-10-30T17:01:38;15.98;;;6.18;;
69188;SDS011;56302;52.322;5.926;2022-10-30T17:04:03;26.65;;;6.57;;
69188;SDS011;56302;52.322;5.926;2022-10-30T17:06:39;23.20;;;7.15;;
69188;SDS011;56302;52.322;5.926;2022-10-30T17:09:17;23.10;;;7.50;;
69188;SDS011;56302;52.322;5.926;2022-10-30T17:12:11;24.38;;;7.70;;
69188;SDS011;56302;52.322;5.926;2022-10-30T17:14:48;20.55;;;7.68;;
69188;SDS011;56302;52.322;5.926;2022-10-30T17:17:22;21.70;;;8.90;;
69188;SDS011;56302;52.322;5.926;2022-10-30T17:19:47;23.08;;;9.95;;
69188;SDS011;56302;52.322;5.926;2022-10-30T17:22:19;22.50;;;9.95;;
69188;SDS011;56302;52.322;5.926;2022-10-30T17:24:45;22.00;;;10.25;;